sensor_id;sensor_type;location;lat;lon;timestamp;pressure;altitude;pressure_sealevel;temperature;humidity
54042;BME280;41156;51.508;5.406;2022-08-01T00:00:50;101526.75;;;20.10;100.00
54042;BME280;41156;51.508;5.406;2022-08-01T00:03:51;101525.13;;;20.09;100.00
54042;BME280;41156;51.508;5.406;2022-08-01T00:06:51;101517.97;;;20.08;100.00
54042;BME280;41156;51.508;5.406;2022-08-01T00:09:51;101526.19;;;20.08;100.00
54042;BME280;41156;51.508;5.406;2022-08-01T00:12:52;101522.63;;;20.07;100.00
54042;BME280;41156;51.508;5.406;2022-08-01T00:15:52;101529.75;;;20.08;100.00
54042;BME280;41156;51.508;5.406;2022-08-01T00:18:52;101525.63;;;20.06;100.00
54042;BME280;41156;51.508;5.406;2022-08-01T00:21:53;101529.50;;;20.10;100.00
54042;BME280;41156;51.508;5.406;2022-08-01T00:24:53;101531.13;;;20.06;100.00
54042;BME280;41156;51.508;5.406;2022-08-01T00:27:54;101540.91;;;19.96;100.00
54042;BME280;41156;51.508;5.406;2022-08-01T00:30:54;101527.78;;;19.99;100.00
54042;BME280;41156;51.508;5.406;2022-08-01T00:33:54;101532.06;;;19.89;100.00
54042;BME280;41156;51.508;5.406;2022-08-01T00:36:55;101535.38;;;19.91;100.00
54042;BME280;41156;51.508;5.406;2022-08-01T00:39:55;101539.78;;;19.92;100.00
54042;BME280;41156;51.508;5.406;2022-08-01T00:42:55;101540.59;;;19.93;100.00
54042;BME280;41156;51.508;5.406;2022-08-01T00:45:55;101535.84;;;19.83;100.00
54042;BME280;41156;51.508;5.406;2022-08-01T00:48:56;101532.00;;;19.79;100.00
54042;BME280;41156;51.508;5.406;2022-08-01T00:51:57;101531.50;;;19.87;100.00
54042;BME280;41156;51.508;5.406;2022-08-01T00:54:58;101537.31;;;19.91;100.00
54042;BME280;41156;51.508;5.406;2022-08-01T00:57:58;101541.28;;;19.78;100.00
54042;BME280;41156;51.508;5.406;2022-08-01T01:00:59;101538.47;;;19.73;100.00
54042;BME280;41156;51.508;5.406;2022-08-01T01:04:00;101544.22;;;19.71;100.00
54042;BME280;41156;51.508;5.406;2022-08-01T01:07:06;101543.41;;;19.71;100.00
54042;BME280;41156;51.508;5.406;2022-08-01T01:10:30;101545.19;;;19.82;100.00
54042;BME280;41156;51.508;5.406;2022-08-01T01:13:38;101535.34;;;19.86;100.00
54042;BME280;41156;51.508;5.406;2022-08-01T01:16:42;101542.19;;;19.84;100.00
54042;BME280;41156;51.508;5.406;2022-08-01T01:19:48;101549.56;;;19.83;100.00
54042;BME280;41156;51.508;5.406;2022-08-01T01:23:11;101541.34;;;19.83;100.00
54042;BME280;41156;51.508;5.406;2022-08-01T01:26:23;101535.84;;;19.83;100.00
54042;BME280;41156;51.508;5.406;2022-08-01T01:29:32;101539.44;;;19.84;100.00
54042;BME280;41156;51.508;5.406;2022-08-01T01:32:43;101536.09;;;19.82;100.00
54042;BME280;41156;51.508;5.406;2022-08-01T01:35:49;101541.06;;;19.85;100.00
54042;BME280;41156;51.508;5.406;2022-08-01T01:38:52;101531.47;;;19.82;100.00
54042;BME280;41156;51.508;5.406;2022-08-01T01:41:54;101542.19;;;19.84;100.00
54042;BME280;41156;51.508;5.406;2022-08-01T01:44:57;101536.41;;;19.80;100.00
54042;BME280;41156;51.508;5.406;2022-08-01T01:47:58;101533.06;;;19.78;100.00
54042;BME280;41156;51.508;5.406;2022-08-01T01:51:00;101530.84;;;19.75;100.00
54042;BME280;41156;51.508;5.406;2022-08-01T01:54:02;101537.16;;;19.75;100.00
54042;BME280;41156;51.508;5.406;2022-08-01T01:57:04;101536.00;;;19.71;100.00
54042;BME280;41156;51.508;5.406;2022-08-01T02:00:08;101532.69;;;19.69;100.00
54042;BME280;41156;51.508;5.406;2022-08-01T02:03:10;101542.56;;;19.70;100.00
54042;BME280;41156;51.508;5.406;2022-08-01T02:06:15;101531.88;;;19.69;100.00
54042;BME280;41156;51.508;5.406;2022-08-01T02:09:17;101538.81;;;19.76;100.00
54042;BME280;41156;51.508;5.406;2022-08-01T02:12:18;101535.56;;;19.80;100.00
54042;BME280;41156;51.508;5.406;2022-08-01T02:15:19;101535.56;;;19.80;100.00
54042;BME280;41156;51.508;5.406;2022-08-01T02:18:19;101535.56;;;19.80;100.00
54042;BME280;41156;51.508;5.406;2022-08-01T02:21:25;101533.00;;;19.73;100.00
54042;BME280;41156;51.508;5.406;2022-08-01T02:27:48;101533.09;;;19.56;100.00
54042;BME280;41156;51.508;5.406;2022-08-01T02:30:50;101536.19;;;19.65;100.00
54042;BME280;41156;51.508;5.406;2022-08-01T02:33:57;101538.94;;;19.65;100.00
54042;BME280;41156;51.508;5.406;2022-08-01T02:37:00;101536.47;;;19.63;100.00
54042;BME280;41156;51.508;5.406;2022-08-01T02:40:01;101534.56;;;19.64;100.00
54042;BME280;41156;51.508;5.406;2022-08-01T02:43:03;101540.03;;;19.64;100.00
54042;BME280;41156;51.508;5.406;2022-08-01T02:46:08;101533.16;;;19.61;100.00
54042;BME280;41156;51.508;5.406;2022-08-01T02:49:10;101532.91;;;19.63;100.00
54042;BME280;41156;51.508;5.406;2022-08-01T02:52:15;101530.50;;;19.71;100.00
54042;BME280;41156;51.508;5.406;2022-08-01T02:55:18;101531.56;;;19.65;100.00
54042;BME280;41156;51.508;5.406;2022-08-01T02:58:20;101543.84;;;19.63;100.00
54042;BME280;41156;51.508;5.406;2022-08-01T03:01:23;101537.34;;;19.69;100.00
54042;BME280;41156;51.508;5.406;2022-08-01T03:04:24;101530.41;;;19.61;100.00
54042;BME280;41156;51.508;5.406;2022-08-01T03:07:26;101537.81;;;19.60;100.00
54042;BME280;41156;51.508;5.406;2022-08-01T03:10:28;101542.19;;;19.62;100.00
54042;BME280;41156;51.508;5.406;2022-08-01T03:13:30;101541.13;;;19.63;100.00
54042;BME280;41156;51.508;5.406;2022-08-01T03:16:33;101537.81;;;19.60;100.00
54042;BME280;41156;51.508;5.406;2022-08-01T03:19:36;101539.72;;;19.60;100.00
54042;BME280;41156;51.508;5.406;2022-08-01T03:22:38;101536.16;;;19.59;100.00
54042;BME280;41156;51.508;5.406;2022-08-01T03:25:41;101544.38;;;19.59;100.00
54042;BME280;41156;51.508;5.406;2022-08-01T03:28:45;101545.47;;;19.58;100.00
54042;BME280;41156;51.508;5.406;2022-08-01T03:31:47;101544.88;;;19.56;100.00
54042;BME280;41156;51.508;5.406;2022-08-01T03:34:49;101546.81;;;19.56;100.00
54042;BME280;41156;51.508;5.406;2022-08-01T03:37:52;101555.03;;;19.56;100.00
54042;BME280;41156;51.508;5.406;2022-08-01T03:40:58;101547.13;;;19.59;100.00
54042;BME280;41156;51.508;5.406;2022-08-01T03:44:04;101551.00;;;19.64;100.00
54042;BME280;41156;51.508;5.406;2022-08-01T03:47:07;101546.34;;;19.64;100.00
54042;BME280;41156;51.508;5.406;2022-08-01T03:50:10;101547.16;;;19.65;100.00
54042;BME280;41156;51.508;5.406;2022-08-01T03:53:11;101542.78;;;19.64;100.00
54042;BME280;41156;51.508;5.406;2022-08-01T03:56:16;101546.91;;;19.66;100.00
54042;BME280;41156;51.508;5.406;2022-08-01T03:59:19;101536.19;;;19.65;100.00
54042;BME280;41156;51.508;5.406;2022-08-01T04:02:21;101545.53;;;19.64;100.00
54042;BME280;41156;51.508;5.406;2022-08-01T04:05:22;101550.16;;;19.63;100.00
54042;BME280;41156;51.508;5.406;2022-08-01T04:08:42;101546.34;;;19.64;100.00
54042;BME280;41156;51.508;5.406;2022-08-01T04:11:42;101555.53;;;19.53;100.00
54042;BME280;41156;51.508;5.406;2022-08-01T04:14:43;101556.34;;;19.53;100.00
54042;BME280;41156;51.508;5.406;2022-08-01T04:17:43;101563.50;;;19.54;100.00
54042;BME280;41156;51.508;5.406;2022-08-01T04:20:46;101556.34;;;19.53;100.00
54042;BME280;41156;51.508;5.406;2022-08-01T04:23:46;101557.78;;;19.56;100.00
54042;BME280;41156;51.508;5.406;2022-08-01T04:26:47;101562.75;;;19.59;100.00
54042;BME280;41156;51.508;5.406;2022-08-01T04:29:51;101560.97;;;19.48;100.00
54042;BME280;41156;51.508;5.406;2022-08-01T04:32:55;101567.97;;;19.60;100.00
54042;BME280;41156;51.508;5.406;2022-08-01T04:35:59;101564.66;;;19.58;100.00
54042;BME280;41156;51.508;5.406;2022-08-01T04:39:02;101565.44;;;19.54;100.00
54042;BME280;41156;51.508;5.406;2022-08-01T04:42:05;101567.72;;;19.62;100.00
54042;BME280;41156;51.508;5.406;2022-08-01T04:45:07;101572.34;;;19.62;100.00
54042;BME280;41156;51.508;5.406;2022-08-01T04:48:09;101575.09;;;19.62;100.00
54042;BME280;41156;51.508;5.406;2022-08-01T04:51:13;101586.06;;;19.62;100.00
54042;BME280;41156;51.508;5.406;2022-08-01T04:54:15;101592.59;;;19.55;100.00
54042;BME280;41156;51.508;5.406;2022-08-01T04:57:15;101588.84;;;19.39;100.00
54042;BME280;41156;51.508;5.406;2022-08-01T05:00:15;101590.44;;;19.35;100.00
54042;BME280;41156;51.508;5.406;2022-08-01T05:03:18;101597.50;;;19.31;100.00
54042;BME280;41156;51.508;5.406;2022-08-01T05:06:19;101598.84;;;19.29;100.00
54042;BME280;41156;51.508;5.406;2022-08-01T05:09:19;101608.16;;;19.28;100.00
54042;BME280;41156;51.508;5.406;2022-08-01T05:12:20;101605.97;;;19.30;100.00
54042;BME280;41156;51.508;5.406;2022-08-01T05:15:20;101607.44;;;19.37;100.00
54042;BME280;41156;51.508;5.406;2022-08-01T05:18:21;101610.25;;;19.42;100.00
54042;BME280;41156;51.508;5.406;2022-08-01T05:21:21;101605.66;;;19.48;100.00
54042;BME280;41156;51.508;5.406;2022-08-01T05:24:22;101606.75;;;19.47;100.00
54042;BME280;41156;51.508;5.406;2022-08-01T05:27:22;101605.06;;;19.46;100.00
54042;BME280;41156;51.508;5.406;2022-08-01T05:30:22;101619.88;;;19.45;100.00
54042;BME280;41156;51.508;5.406;2022-08-01T05:33:23;101611.06;;;19.43;100.00
54042;BME280;41156;51.508;5.406;2022-08-01T05:36:23;101614.66;;;19.44;100.00
54042;BME280;41156;51.508;5.406;2022-08-01T05:39:24;101618.22;;;19.44;100.00
54042;BME280;41156;51.508;5.406;2022-08-01T05:42:24;101610.81;;;19.45;100.00
54042;BME280;41156;51.508;5.406;2022-08-01T05:45:24;101611.13;;;19.48;100.00
54042;BME280;41156;51.508;5.406;2022-08-01T05:48:24;101611.72;;;19.50;100.00
54042;BME280;41156;51.508;5.406;2022-08-01T05:51:25;101611.13;;;19.48;100.00
54042;BME280;41156;51.508;5.406;2022-08-01T05:54:25;101612.78;;;19.49;100.00
54042;BME280;41156;51.508;5.406;2022-08-01T05:57:26;101616.66;;;19.53;100.00
54042;BME280;41156;51.508;5.406;2022-08-01T06:00:26;101611.19;;;19.53;100.00
54042;BME280;41156;51.508;5.406;2022-08-01T06:03:26;101615.59;;;19.54;100.00
54042;BME280;41156;51.508;5.406;2022-08-01T06:06:31;101619.50;;;19.58;100.00
54042;BME280;41156;51.508;5.406;2022-08-01T06:09:31;101616.81;;;19.64;100.00
54042;BME280;41156;51.508;5.406;2022-08-01T06:12:35;101627.81;;;19.69;100.00
54042;BME280;41156;51.508;5.406;2022-08-01T06:15:35;101617.72;;;19.74;100.00
54042;BME280;41156;51.508;5.406;2022-08-01T06:18:36;101621.97;;;19.82;100.00
54042;BME280;41156;51.508;5.406;2022-08-01T06:21:36;101620.91;;;19.88;100.00
54042;BME280;41156;51.508;5.406;2022-08-01T06:24:36;101617.66;;;19.91;100.00
54042;BME280;41156;51.508;5.406;2022-08-01T06:27:36;101617.72;;;19.96;100.00
54042;BME280;41156;51.508;5.406;2022-08-01T06:30:37;101628.88;;;19.90;100.00
54042;BME280;41156;51.508;5.406;2022-08-01T06:33:37;101623.16;;;19.91;100.00
54042;BME280;41156;51.508;5.406;2022-08-01T06:36:38;101628.53;;;20.08;100.00
54042;BME280;41156;51.508;5.406;2022-08-01T06:39:38;101631.38;;;20.19;100.00
54042;BME280;41156;51.508;5.406;2022-08-01T06:42:39;101622.94;;;20.25;100.00
54042;BME280;41156;51.508;5.406;2022-08-01T06:45:39;101639.75;;;20.34;100.00
54042;BME280;41156;51.508;5.406;2022-08-01T06:48:40;101641.66;;;20.33;100.00
54042;BME280;41156;51.508;5.406;2022-08-01T06:51:41;101636.06;;;20.56;100.00
54042;BME280;41156;51.508;5.406;2022-08-01T06:54:41;101643.06;;;20.68;100.00
54042;BME280;41156;51.508;5.406;2022-08-01T06:57:46;101651.38;;;20.79;98.95
54042;BME280;41156;51.508;5.406;2022-08-01T07:00:47;101647.31;;;20.92;100.00
54042;BME280;41156;51.508;5.406;2022-08-01T07:03:48;101641.91;;;21.02;100.00
54042;BME280;41156;51.508;5.406;2022-08-01T07:06:48;101643.31;;;21.10;100.00
54042;BME280;41156;51.508;5.406;2022-08-01T07:09:49;101635.75;;;21.37;98.05
54042;BME280;41156;51.508;5.406;2022-08-01T07:12:49;101642.81;;;21.76;97.11
54042;BME280;41156;51.508;5.406;2022-08-01T07:15:51;101648.03;;;21.77;97.54
54042;BME280;41156;51.508;5.406;2022-08-01T07:18:53;101646.34;;;21.71;97.40
54042;BME280;41156;51.508;5.406;2022-08-01T07:21:53;101646.41;;;21.87;95.93
54042;BME280;41156;51.508;5.406;2022-08-01T07:24:54;101649.75;;;22.09;96.29
54042;BME280;41156;51.508;5.406;2022-08-01T07:27:54;101650.38;;;22.32;95.67
54042;BME280;41156;51.508;5.406;2022-08-01T07:30:55;101647.03;;;22.66;95.56
54042;BME280;41156;51.508;5.406;2022-08-01T07:33:56;101652.53;;;22.97;94.07
54042;BME280;41156;51.508;5.406;2022-08-01T07:36:56;101650.81;;;23.06;92.89
54042;BME280;41156;51.508;5.406;2022-08-01T07:39:57;101658.28;;;23.00;92.07
54042;BME280;41156;51.508;5.406;2022-08-01T07:42:57;101658.03;;;22.76;90.29
54042;BME280;41156;51.508;5.406;2022-08-01T07:45:58;101659.44;;;22.38;91.82
54042;BME280;41156;51.508;5.406;2022-08-01T07:48:58;101659.13;;;22.24;92.10
54042;BME280;41156;51.508;5.406;2022-08-01T07:51:58;101663.50;;;21.99;91.20
54042;BME280;41156;51.508;5.406;2022-08-01T07:54:59;101664.38;;;22.15;92.84
54042;BME280;41156;51.508;5.406;2022-08-01T07:57:59;101665.22;;;22.77;91.87
54042;BME280;41156;51.508;5.406;2022-08-01T08:01:00;101668.59;;;23.60;89.62
54042;BME280;41156;51.508;5.406;2022-08-01T08:04:00;101667.91;;;24.33;87.99
54042;BME280;41156;51.508;5.406;2022-08-01T08:07:01;101664.50;;;25.05;85.88
54042;BME280;41156;51.508;5.406;2022-08-01T08:10:05;101668.06;;;25.78;78.75
54042;BME280;41156;51.508;5.406;2022-08-01T08:13:08;101666.78;;;26.28;82.64
54042;BME280;41156;51.508;5.406;2022-08-01T08:16:09;101666.66;;;26.19;81.45
54042;BME280;41156;51.508;5.406;2022-08-01T08:19:10;101669.47;;;26.00;79.20
54042;BME280;41156;51.508;5.406;2022-08-01T08:22:14;101674.72;;;25.77;79.21
54042;BME280;41156;51.508;5.406;2022-08-01T08:25:14;101672.66;;;25.88;77.39
54042;BME280;41156;51.508;5.406;2022-08-01T08:28:15;101668.22;;;25.87;76.84
54042;BME280;41156;51.508;5.406;2022-08-01T08:31:15;101670.31;;;26.14;74.64
54042;BME280;41156;51.508;5.406;2022-08-01T08:34:16;101674.06;;;26.24;73.30
54042;BME280;41156;51.508;5.406;2022-08-01T08:37:19;101681.47;;;25.90;66.28
54042;BME280;41156;51.508;5.406;2022-08-01T08:40:22;101669.34;;;26.24;70.40
54042;BME280;41156;51.508;5.406;2022-08-01T08:43:27;101669.09;;;26.39;69.03
54042;BME280;41156;51.508;5.406;2022-08-01T08:46:28;101664.84;;;26.94;67.21
54042;BME280;41156;51.508;5.406;2022-08-01T08:49:33;101667.66;;;27.36;64.74
54042;BME280;41156;51.508;5.406;2022-08-01T08:52:35;101670.13;;;27.51;63.55
54042;BME280;41156;51.508;5.406;2022-08-01T08:55:38;101667.78;;;27.30;63.33
54042;BME280;41156;51.508;5.406;2022-08-01T08:58:41;101668.97;;;26.97;61.29
54042;BME280;41156;51.508;5.406;2022-08-01T09:01:44;101671.19;;;26.81;63.32
54042;BME280;41156;51.508;5.406;2022-08-01T09:04:47;101679.72;;;26.84;61.19
54042;BME280;41156;51.508;5.406;2022-08-01T09:07:48;101671.53;;;26.60;62.55
54042;BME280;41156;51.508;5.406;2022-08-01T09:10:48;101676.72;;;26.67;61.63
54042;BME280;41156;51.508;5.406;2022-08-01T09:17:07;101681.75;;;27.53;56.58
54042;BME280;41156;51.508;5.406;2022-08-01T09:20:22;101691.00;;;27.48;55.60
54042;BME280;41156;51.508;5.406;2022-08-01T09:26:36;101690.69;;;26.75;59.36
54042;BME280;41156;51.508;5.406;2022-08-01T09:29:37;101685.03;;;26.48;59.72
54042;BME280;41156;51.508;5.406;2022-08-01T09:32:53;101682.00;;;26.96;56.45
54042;BME280;41156;51.508;5.406;2022-08-01T09:35:56;101689.56;;;27.37;57.41
54042;BME280;41156;51.508;5.406;2022-08-01T09:39:12;101685.66;;;27.52;56.43
54042;BME280;41156;51.508;5.406;2022-08-01T09:42:24;101683.06;;;27.69;56.29
54042;BME280;41156;51.508;5.406;2022-08-01T09:45:32;101693.84;;;27.85;54.96
54042;BME280;41156;51.508;5.406;2022-08-01T09:48:55;101692.03;;;27.66;56.67
54042;BME280;41156;51.508;5.406;2022-08-01T09:51:54;101689.31;;;27.75;56.52
54042;BME280;41156;51.508;5.406;2022-08-01T09:55:02;101682.22;;;27.83;55.77
54042;BME280;41156;51.508;5.406;2022-08-01T09:58:10;101697.03;;;27.64;53.38
54042;BME280;41156;51.508;5.406;2022-08-01T10:01:11;101693.06;;;27.29;55.79
54042;BME280;41156;51.508;5.406;2022-08-01T10:04:14;101694.94;;;26.87;56.11
54042;BME280;41156;51.508;5.406;2022-08-01T10:07:15;101694.44;;;26.85;56.04
54042;BME280;41156;51.508;5.406;2022-08-01T10:10:16;101693.53;;;27.17;55.56
54042;BME280;41156;51.508;5.406;2022-08-01T10:13:16;101692.75;;;27.44;55.51
54042;BME280;41156;51.508;5.406;2022-08-01T10:16:18;101697.56;;;27.66;54.98
54042;BME280;41156;51.508;5.406;2022-08-01T10:19:22;101695.50;;;27.72;52.48
54042;BME280;41156;51.508;5.406;2022-08-01T10:22:24;101698.34;;;27.81;53.84
54042;BME280;41156;51.508;5.406;2022-08-01T10:25:31;101699.88;;;27.87;53.46
54042;BME280;41156;51.508;5.406;2022-08-01T10:28:35;101705.97;;;28.03;52.87
54042;BME280;41156;51.508;5.406;2022-08-01T10:31:37;101704.69;;;28.09;53.71
54042;BME280;41156;51.508;5.406;2022-08-01T10:34:41;101710.69;;;27.88;53.89
54042;BME280;41156;51.508;5.406;2022-08-01T10:37:44;101714.63;;;27.46;54.26
54042;BME280;41156;51.508;5.406;2022-08-01T10:40:46;101709.56;;;27.20;55.37
54042;BME280;41156;51.508;5.406;2022-08-01T10:43:49;101723.50;;;27.48;55.42
54042;BME280;41156;51.508;5.406;2022-08-01T10:46:55;101702.78;;;27.82;54.85
54042;BME280;41156;51.508;5.406;2022-08-01T10:50:13;101712.59;;;28.16;53.44
54042;BME280;41156;51.508;5.406;2022-08-01T10:53:19;101707.00;;;28.30;54.06
54042;BME280;41156;51.508;5.406;2022-08-01T10:56:20;101718.16;;;28.16;54.30
54042;BME280;41156;51.508;5.406;2022-08-01T10:59:25;101727.66;;;28.01;53.63
54042;BME280;41156;51.508;5.406;2022-08-01T11:02:33;101722.22;;;28.10;53.92
54042;BME280;41156;51.508;5.406;2022-08-01T11:05:42;101724.06;;;28.37;52.42
54042;BME280;41156;51.508;5.406;2022-08-01T11:08:51;101736.00;;;28.37;52.74
54042;BME280;41156;51.508;5.406;2022-08-01T11:12:05;101731.91;;;28.21;52.54
54042;BME280;41156;51.508;5.406;2022-08-01T11:18:32;101740.13;;;27.62;54.25
54042;BME280;41156;51.508;5.406;2022-08-01T11:24:59;101730.47;;;27.31;54.00
54042;BME280;41156;51.508;5.406;2022-08-01T11:31:25;101752.44;;;27.28;54.58
54042;BME280;41156;51.508;5.406;2022-08-01T11:34:53;101751.66;;;27.55;53.25
54042;BME280;41156;51.508;5.406;2022-08-01T11:37:54;101753.19;;;28.03;53.18
54042;BME280;41156;51.508;5.406;2022-08-01T11:41:14;101749.16;;;28.09;49.64
54042;BME280;41156;51.508;5.406;2022-08-01T11:44:17;101751.41;;;28.43;51.77
54042;BME280;41156;51.508;5.406;2022-08-01T11:47:18;101751.22;;;28.76;50.78
54042;BME280;41156;51.508;5.406;2022-08-01T11:50:38;101744.34;;;28.83;50.56
54042;BME280;41156;51.508;5.406;2022-08-01T11:53:46;101747.38;;;28.95;48.55
54042;BME280;41156;51.508;5.406;2022-08-01T11:56:47;101748.50;;;28.94;49.36
54042;BME280;41156;51.508;5.406;2022-08-01T11:59:58;101754.88;;;28.63;47.17
54042;BME280;41156;51.508;5.406;2022-08-01T12:03:04;101754.31;;;28.38;49.75
54042;BME280;41156;51.508;5.406;2022-08-01T12:06:04;101761.94;;;28.33;49.93
54042;BME280;41156;51.508;5.406;2022-08-01T12:09:18;101764.75;;;28.19;48.04
54042;BME280;41156;51.508;5.406;2022-08-01T12:12:19;101761.31;;;27.99;50.55
54042;BME280;41156;51.508;5.406;2022-08-01T12:15:22;101768.53;;;28.37;49.55
54042;BME280;41156;51.508;5.406;2022-08-01T12:18:26;101765.19;;;28.49;48.88
54042;BME280;41156;51.508;5.406;2022-08-01T12:21:27;101760.97;;;28.51;48.77
54042;BME280;41156;51.508;5.406;2022-08-01T12:24:28;101758.09;;;28.42;48.40
54042;BME280;41156;51.508;5.406;2022-08-01T12:27:30;101755.63;;;28.04;48.74
54042;BME280;41156;51.508;5.406;2022-08-01T12:30:32;101749.19;;;27.81;49.47
54042;BME280;41156;51.508;5.406;2022-08-01T12:33:35;101753.66;;;27.91;49.32
54042;BME280;41156;51.508;5.406;2022-08-01T12:36:35;101755.50;;;28.23;48.97
54042;BME280;41156;51.508;5.406;2022-08-01T12:39:36;101757.97;;;28.48;48.75
54042;BME280;41156;51.508;5.406;2022-08-01T12:42:40;101757.75;;;28.81;48.68
54042;BME280;41156;51.508;5.406;2022-08-01T12:45:43;101750.53;;;29.02;47.83
54042;BME280;41156;51.508;5.406;2022-08-01T12:48:44;101751.25;;;28.85;47.63
54042;BME280;41156;51.508;5.406;2022-08-01T12:51:45;101752.81;;;29.00;47.58
54042;BME280;41156;51.508;5.406;2022-08-01T12:55:09;101752.38;;;28.84;46.05
54042;BME280;41156;51.508;5.406;2022-08-01T12:58:14;101745.88;;;28.89;46.37
54042;BME280;41156;51.508;5.406;2022-08-01T13:01:15;101751.16;;;28.54;47.27
54042;BME280;41156;51.508;5.406;2022-08-01T13:04:15;101749.03;;;28.14;48.33
54042;BME280;41156;51.508;5.406;2022-08-01T13:07:16;101746.69;;;27.66;49.35
54042;BME280;41156;51.508;5.406;2022-08-01T13:10:30;101745.06;;;27.51;49.17
54042;BME280;41156;51.508;5.406;2022-08-01T13:13:44;101748.72;;;27.19;49.67
54042;BME280;41156;51.508;5.406;2022-08-01T13:16:48;101748.91;;;27.08;50.26
54042;BME280;41156;51.508;5.406;2022-08-01T13:19:48;101746.13;;;27.08;50.57
54042;BME280;41156;51.508;5.406;2022-08-01T13:22:49;101742.84;;;27.06;50.74
54042;BME280;41156;51.508;5.406;2022-08-01T13:25:55;101742.75;;;27.25;50.32
54042;BME280;41156;51.508;5.406;2022-08-01T13:29:09;101747.03;;;27.50;49.07
54042;BME280;41156;51.508;5.406;2022-08-01T13:32:18;101742.38;;;27.87;49.05
54042;BME280;41156;51.508;5.406;2022-08-01T13:35:20;101744.94;;;27.98;48.46
54042;BME280;41156;51.508;5.406;2022-08-01T13:38:21;101752.34;;;28.16;48.42
54042;BME280;41156;51.508;5.406;2022-08-01T13:41:42;101754.25;;;28.30;48.16
54042;BME280;41156;51.508;5.406;2022-08-01T13:44:43;101748.94;;;28.42;48.24
54042;BME280;41156;51.508;5.406;2022-08-01T13:47:45;101734.25;;;28.64;47.64
54042;BME280;41156;51.508;5.406;2022-08-01T13:50:51;101745.81;;;28.80;47.00
54042;BME280;41156;51.508;5.406;2022-08-01T13:53:52;101738.63;;;29.10;46.14
54042;BME280;41156;51.508;5.406;2022-08-01T13:56:53;101738.56;;;28.93;45.37
54042;BME280;41156;51.508;5.406;2022-08-01T13:59:54;101738.25;;;28.72;45.75
54042;BME280;41156;51.508;5.406;2022-08-01T14:02:54;101729.31;;;28.84;45.16
54042;BME280;41156;51.508;5.406;2022-08-01T14:05:56;101735.28;;;28.68;45.48
54042;BME280;41156;51.508;5.406;2022-08-01T14:08:57;101731.88;;;28.71;45.11
54042;BME280;41156;51.508;5.406;2022-08-01T14:12:01;101735.16;;;28.73;43.87
54042;BME280;41156;51.508;5.406;2022-08-01T14:15:01;101730.09;;;28.53;45.22
54042;BME280;41156;51.508;5.406;2022-08-01T14:18:02;101726.28;;;28.49;44.76
54042;BME280;41156;51.508;5.406;2022-08-01T14:21:05;101730.41;;;28.51;43.10
54042;BME280;41156;51.508;5.406;2022-08-01T14:24:06;101724.53;;;28.75;44.64
54042;BME280;41156;51.508;5.406;2022-08-01T14:27:06;101728.44;;;28.52;44.65
54042;BME280;41156;51.508;5.406;2022-08-01T14:30:08;101734.69;;;28.35;44.98
54042;BME280;41156;51.508;5.406;2022-08-01T14:33:13;101735.53;;;28.58;42.95
54042;BME280;41156;51.508;5.406;2022-08-01T14:36:20;101731.53;;;28.50;43.27
54042;BME280;41156;51.508;5.406;2022-08-01T14:39:23;101733.06;;;28.56;44.19
54042;BME280;41156;51.508;5.406;2022-08-01T14:42:23;101732.09;;;28.61;44.36
54042;BME280;41156;51.508;5.406;2022-08-01T14:45:24;101727.66;;;28.83;44.51
54042;BME280;41156;51.508;5.406;2022-08-01T14:48:24;101729.94;;;29.03;43.67
54042;BME280;41156;51.508;5.406;2022-08-01T14:51:25;101723.34;;;29.22;43.48
54042;BME280;41156;51.508;5.406;2022-08-01T14:54:26;101727.97;;;29.35;42.30
54042;BME280;41156;51.508;5.406;2022-08-01T14:57:26;101720.97;;;29.46;42.30
54042;BME280;41156;51.508;5.406;2022-08-01T15:00:27;101721.47;;;29.48;41.81
54042;BME280;41156;51.508;5.406;2022-08-01T15:03:27;101709.00;;;29.46;41.48
54042;BME280;41156;51.508;5.406;2022-08-01T15:06:28;101712.31;;;29.65;41.22
54042;BME280;41156;51.508;5.406;2022-08-01T15:09:28;101712.91;;;29.85;41.25
54042;BME280;41156;51.508;5.406;2022-08-01T15:12:29;101717.00;;;29.96;40.57
54042;BME280;41156;51.508;5.406;2022-08-01T15:15:32;101716.38;;;30.08;40.42
54042;BME280;41156;51.508;5.406;2022-08-01T15:18:33;101711.03;;;29.63;40.87
54042;BME280;41156;51.508;5.406;2022-08-01T15:21:39;101714.50;;;29.20;39.77
54042;BME280;41156;51.508;5.406;2022-08-01T15:24:40;101725.53;;;28.57;41.97
54042;BME280;41156;51.508;5.406;2022-08-01T15:27:41;101725.47;;;28.48;40.56
54042;BME280;41156;51.508;5.406;2022-08-01T15:30:42;101721.63;;;28.58;41.66
54042;BME280;41156;51.508;5.406;2022-08-01T15:33:43;101716.47;;;28.96;41.47
54042;BME280;41156;51.508;5.406;2022-08-01T15:36:43;101725.34;;;29.30;40.90
54042;BME280;41156;51.508;5.406;2022-08-01T15:39:43;101717.53;;;29.49;40.38
54042;BME280;41156;51.508;5.406;2022-08-01T15:42:44;101735.16;;;29.36;40.70
54042;BME280;41156;51.508;5.406;2022-08-01T15:45:44;101730.78;;;29.44;40.20
54042;BME280;41156;51.508;5.406;2022-08-01T15:48:45;101731.56;;;29.36;40.50
54042;BME280;41156;51.508;5.406;2022-08-01T15:51:46;101742.03;;;29.30;40.42
54042;BME280;41156;51.508;5.406;2022-08-01T15:54:46;101732.78;;;29.52;40.30
54042;BME280;41156;51.508;5.406;2022-08-01T15:57:46;101729.97;;;29.43;40.50
54042;BME280;41156;51.508;5.406;2022-08-01T16:00:47;101731.53;;;29.27;40.67
54042;BME280;41156;51.508;5.406;2022-08-01T16:03:54;101741.19;;;29.29;40.74
54042;BME280;41156;51.508;5.406;2022-08-01T16:06:55;101740.16;;;29.48;40.21
54042;BME280;41156;51.508;5.406;2022-08-01T16:09:55;101734.50;;;29.30;40.03